createdAt,value
2022-11-27T00:01:39.354Z,81.30
2022-11-27T00:04:07.818Z,81.40
2022-11-27T00:06:36.080Z,81.50
2022-11-27T00:09:06.132Z,81.30
2022-11-27T00:11:33.793Z,80.90
2022-11-27T00:14:02.744Z,81.30
2022-11-27T00:16:29.946Z,81.70
2022-11-27T00:18:57.515Z,81.70
2022-11-27T00:21:27.265Z,81.40
2022-11-27T00:23:55.777Z,80.50
2022-11-27T00:26:25.827Z,80.20
2022-11-27T00:28:54.883Z,80.20
2022-11-27T00:31:30.191Z,80.60
2022-11-27T00:34:03.202Z,80.60
2022-11-27T00:36:32.719Z,80.60
2022-11-27T00:39:00.273Z,80.80
2022-11-27T00:41:29.794Z,80.80
2022-11-27T00:44:00.008Z,80.80
2022-11-27T00:46:30.172Z,81.10
2022-11-27T00:49:02.506Z,80.80
2022-11-27T00:51:30.600Z,80.60
2022-11-27T00:53:57.638Z,81.10
2022-11-27T00:56:31.023Z,81.40
2022-11-27T00:58:59.125Z,81.80
2022-11-27T01:01:29.177Z,81.70
2022-11-27T01:04:01.293Z,81.90
2022-11-27T01:06:30.881Z,82.00
2022-11-27T01:08:58.960Z,82.20
2022-11-27T01:11:28.847Z,82.60
2022-11-27T01:13:57.630Z,82.60
2022-11-27T01:16:27.225Z,82.80
2022-11-27T01:18:58.274Z,82.70
2022-11-27T01:21:29.341Z,83.10
2022-11-27T01:23:56.551Z,82.90
2022-11-27T01:26:23.612Z,83.10
2022-11-27T01:28:54.987Z,83.20
2022-11-27T01:31:25.729Z,83.20
2022-11-27T01:33:57.335Z,83.20
2022-11-27T01:36:24.822Z,83.30
2022-11-27T01:38:51.676Z,83.40
2022-11-27T01:41:25.874Z,83.30
2022-11-27T01:43:55.918Z,83.10
2022-11-27T01:46:42.517Z,83.00
2022-11-27T01:49:30.472Z,82.80
2022-11-27T01:52:16.932Z,82.70
2022-11-27T01:54:46.888Z,82.70
2022-11-27T01:57:36.518Z,82.90
2022-11-27T02:00:09.547Z,82.80
2022-11-27T02:02:42.695Z,83.00
2022-11-27T02:05:14.257Z,83.10
2022-11-27T02:07:41.668Z,83.40
2022-11-27T02:10:08.811Z,83.40
2022-11-27T02:12:48.177Z,83.40
2022-11-27T02:15:39.767Z,83.70
2022-11-27T02:18:37.421Z,83.80
2022-11-27T02:21:36.923Z,83.90
2022-11-27T02:24:29.996Z,84.00
2022-11-27T02:27:32.667Z,84.70
2022-11-27T02:30:05.035Z,84.70
2022-11-27T02:32:59.103Z,84.90
2022-11-27T02:35:35.893Z,85.20
2022-11-27T02:38:14.627Z,85.10
2022-11-27T02:40:47.292Z,85.40
2022-11-27T02:43:34.424Z,85.20
2022-11-27T02:46:04.586Z,85.00
2022-11-27T02:48:53.450Z,84.80
2022-11-27T02:51:25.990Z,84.80
2022-11-27T02:54:00.488Z,84.80
2022-11-27T02:56:31.032Z,85.20
2022-11-27T02:59:04.764Z,85.30
2022-11-27T03:01:39.739Z,85.40
2022-11-27T03:04:11.837Z,85.50
2022-11-27T03:06:50.600Z,85.80
2022-11-27T03:09:21.278Z,85.90
2022-11-27T03:11:50.719Z,86.10
2022-11-27T03:14:20.192Z,86.50
2022-11-27T03:17:08.200Z,86.70
2022-11-27T03:19:56.235Z,87.10
2022-11-27T03:22:23.519Z,87.20
2022-11-27T03:24:50.257Z,87.40
2022-11-27T03:27:22.686Z,87.20
2022-11-27T03:30:01.190Z,87.40
2022-11-27T03:32:33.517Z,87.60
2022-11-27T03:35:02.038Z,87.60
2022-11-27T03:37:30.024Z,87.70
2022-11-27T03:39:56.929Z,87.90
2022-11-27T03:42:46.144Z,88.00
2022-11-27T03:45:51.584Z,88.10
2022-11-27T03:48:41.173Z,88.50
2022-11-27T03:51:17.079Z,88.40
2022-11-27T03:53:58.893Z,88.20
2022-11-27T03:56:43.229Z,87.80
2022-11-27T03:59:26.637Z,87.50
2022-11-27T04:01:55.941Z,87.30
2022-11-27T04:04:22.871Z,87.30
2022-11-27T04:06:49.979Z,87.20
2022-11-27T04:09:16.811Z,87.20
2022-11-27T04:11:43.758Z,87.00
2022-11-27T04:14:12.791Z,86.70
2022-11-27T04:16:39.845Z,86.60
2022-11-27T04:19:09.413Z,86.50
2022-11-27T04:21:36.287Z,86.60
2022-11-27T04:24:03.541Z,87.10
2022-11-27T04:26:32.417Z,87.40
2022-11-27T04:29:01.290Z,87.50
2022-11-27T04:31:28.273Z,87.60
2022-11-27T04:33:55.549Z,87.40
2022-11-27T04:36:22.420Z,87.40
2022-11-27T04:38:49.154Z,87.50
2022-11-27T04:41:18.399Z,87.90
2022-11-27T04:43:45.165Z,88.30
2022-11-27T04:46:12.094Z,88.30
2022-11-27T04:48:43.639Z,88.30
2022-11-27T04:51:10.579Z,88.40
2022-11-27T04:53:42.211Z,88.70
2022-11-27T04:56:09.140Z,89.10
2022-11-27T04:58:35.870Z,89.50
2022-11-27T05:01:02.759Z,89.60
2022-11-27T05:03:29.904Z,90.00
2022-11-27T05:05:58.599Z,90.10
2022-11-27T05:08:26.279Z,90.30
2022-11-27T05:11:22.520Z,90.30
2022-11-27T05:13:49.992Z,90.40
2022-11-27T05:16:16.728Z,90.40
2022-11-27T05:18:48.135Z,90.50
2022-11-27T05:21:14.924Z,90.70
2022-11-27T05:23:41.651Z,90.50
2022-11-27T05:26:08.746Z,90.50
2022-11-27T05:28:35.516Z,90.40
2022-11-27T05:31:08.256Z,90.40
2022-11-27T05:33:35.105Z,90.40
2022-11-27T05:36:01.950Z,90.30
2022-11-27T05:38:29.734Z,90.20
2022-11-27T05:40:57.129Z,90.30
2022-11-27T05:43:26.022Z,90.40
2022-11-27T05:45:52.683Z,90.40
2022-11-27T05:48:19.697Z,90.30
2022-11-27T05:50:46.619Z,90.20
2022-11-27T05:53:14.511Z,90.10
2022-11-27T05:55:41.326Z,90.00
2022-11-27T05:58:08.192Z,90.00
2022-11-27T06:00:39.615Z,90.10
2022-11-27T06:03:06.459Z,90.20
2022-11-27T06:05:33.299Z,90.30
2022-11-27T06:08:00.328Z,90.40
2022-11-27T06:10:27.059Z,90.50
2022-11-27T06:12:55.061Z,90.60
2022-11-27T06:15:21.987Z,90.70
2022-11-27T06:17:49.805Z,90.80
2022-11-27T06:20:20.442Z,90.90
2022-11-27T06:22:47.371Z,91.00
2022-11-27T06:25:16.921Z,90.90
2022-11-27T06:27:44.130Z,91.00
2022-11-27T06:30:11.483Z,91.00
2022-11-27T06:32:42.794Z,91.00
2022-11-27T06:35:11.106Z,91.00
2022-11-27T06:37:37.826Z,91.00
2022-11-27T06:40:05.375Z,91.00
2022-11-27T06:42:32.128Z,91.00
2022-11-27T06:44:58.909Z,90.90
2022-11-27T06:47:25.669Z,90.90
2022-11-27T06:49:55.233Z,90.80
2022-11-27T06:52:22.097Z,90.80
2022-11-27T06:54:48.905Z,90.80
2022-11-27T06:57:20.457Z,90.80
2022-11-27T06:59:50.248Z,90.90
2022-11-27T07:02:19.383Z,90.90
2022-11-27T07:04:46.152Z,91.00
2022-11-27T07:07:13.239Z,90.90
2022-11-27T07:09:42.647Z,90.90
2022-11-27T07:12:12.005Z,90.90
2022-11-27T07:14:39.150Z,90.90
2022-11-27T07:17:06.395Z,90.90
2022-11-27T07:19:35.683Z,90.90
2022-11-27T07:22:02.953Z,91.10
2022-11-27T07:24:30.327Z,91.20
2022-11-27T07:26:57.123Z,91.30
2022-11-27T07:29:26.308Z,91.30
2022-11-27T07:31:53.225Z,91.40
2022-11-27T07:34:22.339Z,91.50
2022-11-27T07:36:49.532Z,91.40
2022-11-27T07:39:25.171Z,91.40
2022-11-27T07:42:23.086Z,91.30
2022-11-27T07:44:50.697Z,91.30
2022-11-27T07:47:17.578Z,91.40
2022-11-27T07:49:44.639Z,91.40
2022-11-27T07:52:20.232Z,91.30
2022-11-27T07:54:46.928Z,91.30
2022-11-27T07:57:13.624Z,91.40
2022-11-27T07:59:47.014Z,91.30
2022-11-27T08:02:19.703Z,91.50
2022-11-27T08:04:46.532Z,91.50
2022-11-27T08:07:13.358Z,91.40
2022-11-27T08:09:40.244Z,91.50
2022-11-27T08:12:11.578Z,91.40
2022-11-27T08:14:38.595Z,91.20
2022-11-27T08:17:05.861Z,91.00
2022-11-27T08:19:32.649Z,90.80
2022-11-27T08:21:59.677Z,90.70
2022-11-27T08:24:26.419Z,90.60
2022-11-27T08:26:53.367Z,90.50
2022-11-27T08:29:20.145Z,90.30
2022-11-27T08:31:47.404Z,90.20
2022-11-27T08:34:14.307Z,90.20
2022-11-27T08:36:43.410Z,90.40
2022-11-27T08:39:10.364Z,90.20
2022-11-27T08:41:37.855Z,89.90
2022-11-27T08:44:08.030Z,89.10
2022-11-27T08:46:36.574Z,87.30
2022-11-27T08:49:03.648Z,86.20
2022-11-27T08:51:31.276Z,85.10
2022-11-27T08:53:57.958Z,84.00
2022-11-27T08:56:26.644Z,83.90
2022-11-27T08:58:53.883Z,84.10
2022-11-27T09:01:30.809Z,84.80
2022-11-27T09:03:59.505Z,85.40
2022-11-27T09:06:29.519Z,85.00
2022-11-27T09:08:58.056Z,84.50
2022-11-27T09:11:24.919Z,84.40
2022-11-27T09:13:52.215Z,84.30
2022-11-27T09:16:20.924Z,84.20
2022-11-27T09:18:49.498Z,84.00
2022-11-27T09:21:18.857Z,81.80
2022-11-27T09:23:45.681Z,81.40
2022-11-27T09:26:16.050Z,81.50
2022-11-27T09:28:46.433Z,82.00
2022-11-27T09:31:16.071Z,82.10
2022-11-27T09:33:44.163Z,82.20
2022-11-27T09:36:25.683Z,82.50
2022-11-27T09:38:53.367Z,81.70
2022-11-27T09:41:23.163Z,81.50
2022-11-27T09:43:57.992Z,81.50
2022-11-27T09:46:31.839Z,80.40
2022-11-27T09:49:02.246Z,80.20
2022-11-27T09:51:35.583Z,78.20
2022-11-27T09:54:41.154Z,76.80
2022-11-27T09:57:16.493Z,75.20
2022-11-27T09:59:51.453Z,75.30
2022-11-27T10:02:31.207Z,74.50
2022-11-27T10:05:16.734Z,73.90
2022-11-27T10:08:20.471Z,71.90
2022-11-27T10:10:56.885Z,71.20
2022-11-27T10:13:45.961Z,72.00
2022-11-27T10:16:52.252Z,73.10
2022-11-27T10:19:53.033Z,73.60
2022-11-27T10:22:29.732Z,74.50
2022-11-27T10:25:32.573Z,74.30
2022-11-27T10:28:33.619Z,75.20
2022-11-27T10:31:19.332Z,75.30
2022-11-27T10:33:56.109Z,75.10
2022-11-27T10:36:39.739Z,74.80
2022-11-27T10:39:15.934Z,73.70
2022-11-27T10:42:07.405Z,72.30
2022-11-27T10:44:39.925Z,70.50
2022-11-27T10:47:10.237Z,70.00
2022-11-27T10:49:40.530Z,70.50
2022-11-27T10:52:14.172Z,70.80
2022-11-27T10:54:41.413Z,70.70
2022-11-27T10:57:37.802Z,70.30
2022-11-27T11:00:10.865Z,70.50
2022-11-27T11:02:40.148Z,71.00
2022-11-27T11:06:12.021Z,71.80
2022-11-27T11:08:21.036Z,71.00
2022-11-27T11:10:59.290Z,70.40
2022-11-27T11:13:43.215Z,70.80
2022-11-27T11:16:35.623Z,70.10
2022-11-27T11:19:03.006Z,70.40
2022-11-27T11:21:34.273Z,70.80
2022-11-27T11:24:03.223Z,71.00
2022-11-27T11:26:32.248Z,70.60
2022-11-27T11:29:03.098Z,70.30
2022-11-27T11:31:38.062Z,70.50
2022-11-27T11:34:20.048Z,70.80
2022-11-27T11:37:08.495Z,70.70
2022-11-27T11:39:48.725Z,70.60
2022-11-27T11:42:21.958Z,70.90
2022-11-27T11:44:55.283Z,70.00
2022-11-27T11:47:26.717Z,69.70
2022-11-27T11:49:56.384Z,70.00
2022-11-27T11:52:38.876Z,68.90
2022-11-27T11:55:45.872Z,68.50
2022-11-27T11:58:52.664Z,68.30
2022-11-27T12:01:45.308Z,68.30
2022-11-27T12:04:21.565Z,69.10
2022-11-27T12:07:00.102Z,68.10
2022-11-27T12:09:38.597Z,67.70
2022-11-27T12:12:10.862Z,67.60
2022-11-27T12:15:14.765Z,67.60
2022-11-27T12:18:02.098Z,66.80
2022-11-27T12:20:45.985Z,67.20
2022-11-27T12:23:33.878Z,66.30
2022-11-27T12:26:12.781Z,66.50
2022-11-27T12:28:59.006Z,65.80
2022-11-27T12:31:31.299Z,66.40
2022-11-27T12:34:20.662Z,66.00
2022-11-27T12:37:14.258Z,65.80
2022-11-27T12:40:02.241Z,66.00
2022-11-27T12:42:56.910Z,67.60
2022-11-27T12:45:35.069Z,66.60
2022-11-27T12:48:11.364Z,65.50
2022-11-27T12:50:59.258Z,66.00
2022-11-27T12:53:41.655Z,66.30
2022-11-27T12:56:25.206Z,66.50
2022-11-27T12:59:02.989Z,66.60
2022-11-27T13:01:39.613Z,66.20
2022-11-27T13:04:33.705Z,66.20
2022-11-27T13:07:04.847Z,64.80
2022-11-27T13:09:37.354Z,64.80
2022-11-27T13:12:04.959Z,65.30
2022-11-27T13:14:38.556Z,65.60
2022-11-27T13:17:12.557Z,65.10
2022-11-27T13:19:48.527Z,64.90
2022-11-27T13:22:32.048Z,64.80
2022-11-27T13:25:02.763Z,65.10
2022-11-27T13:27:34.443Z,66.00
2022-11-27T13:30:07.680Z,66.20
2022-11-27T13:32:41.233Z,66.50
2022-11-27T13:35:27.242Z,67.60
2022-11-27T13:38:11.028Z,68.00
2022-11-27T13:40:44.563Z,68.10
2022-11-27T13:43:19.024Z,69.00
2022-11-27T13:45:46.426Z,69.40
2022-11-27T13:48:28.505Z,68.90
2022-11-27T13:51:00.907Z,69.30
2022-11-27T13:53:32.626Z,69.30
2022-11-27T13:55:59.784Z,69.00
2022-11-27T13:58:37.774Z,68.50
2022-11-27T14:01:17.502Z,68.10
2022-11-27T14:03:45.190Z,68.50
2022-11-27T14:06:20.792Z,68.00
2022-11-27T14:09:02.914Z,67.80
2022-11-27T14:11:40.265Z,67.70
2022-11-27T14:14:15.019Z,68.00
2022-11-27T14:16:42.620Z,68.30
2022-11-27T14:19:34.006Z,68.20
2022-11-27T14:22:13.247Z,69.20
2022-11-27T14:24:44.043Z,69.40
2022-11-27T14:27:27.994Z,69.60
2022-11-27T14:29:54.907Z,69.60
2022-11-27T14:32:23.889Z,69.50
2022-11-27T14:34:50.906Z,69.70
2022-11-27T14:37:23.761Z,70.10
2022-11-27T14:39:50.675Z,69.80
2022-11-27T14:42:29.786Z,69.60
2022-11-27T14:45:08.218Z,69.50
2022-11-27T14:47:40.829Z,69.60
2022-11-27T14:50:15.092Z,70.00
2022-11-27T14:52:47.052Z,69.20
2022-11-27T14:55:17.598Z,69.50
2022-11-27T14:57:46.802Z,69.30
2022-11-27T15:00:25.419Z,69.40
2022-11-27T15:02:52.982Z,69.40
2022-11-27T15:05:25.856Z,69.60
2022-11-27T15:07:58.313Z,68.90
2022-11-27T15:10:42.586Z,69.30
2022-11-27T15:13:27.088Z,69.40
2022-11-27T15:16:16.694Z,69.50
2022-11-27T15:18:49.942Z,69.50
2022-11-27T15:21:20.856Z,69.70
2022-11-27T15:23:49.925Z,70.00
2022-11-27T15:26:34.832Z,70.00
2022-11-27T15:29:04.126Z,69.90
2022-11-27T15:31:33.828Z,70.10
2022-11-27T15:34:05.623Z,69.50
2022-11-27T15:36:43.090Z,69.60
2022-11-27T15:39:24.764Z,69.80
2022-11-27T15:42:02.713Z,70.10
2022-11-27T15:44:32.238Z,70.00
2022-11-27T15:47:02.105Z,70.00
2022-11-27T15:49:29.696Z,70.30
2022-11-27T15:51:57.309Z,69.80
2022-11-27T15:54:25.175Z,70.40
2022-11-27T15:56:52.233Z,70.60
2022-11-27T15:59:21.789Z,70.50
2022-11-27T16:01:49.732Z,71.10
2022-11-27T16:04:17.321Z,71.30
2022-11-27T16:06:45.518Z,71.00
2022-11-27T16:09:12.554Z,71.40
2022-11-27T16:11:42.506Z,71.50
2022-11-27T16:14:09.486Z,72.30
2022-11-27T16:16:37.220Z,71.90
2022-11-27T16:19:07.453Z,72.40
2022-11-27T16:21:35.456Z,72.60
2022-11-27T16:24:06.850Z,72.70
2022-11-27T16:26:34.154Z,73.30
2022-11-27T16:29:01.002Z,73.40
2022-11-27T16:31:31.043Z,73.40
2022-11-27T16:33:58.353Z,73.70
2022-11-27T16:36:25.520Z,73.70
2022-11-27T16:38:54.605Z,74.20
2022-11-27T16:41:24.462Z,74.20
2022-11-27T16:43:56.259Z,74.20
2022-11-27T16:46:27.479Z,74.30
2022-11-27T16:48:56.108Z,74.70
2022-11-27T16:51:25.181Z,74.40
2022-11-27T16:53:55.235Z,73.90
2022-11-27T16:56:24.745Z,74.20
2022-11-27T16:59:02.322Z,74.50
2022-11-27T17:01:34.661Z,74.70
2022-11-27T17:04:08.905Z,75.40
2022-11-27T17:06:38.091Z,74.60
2022-11-27T17:09:07.739Z,74.20
2022-11-27T17:11:39.751Z,73.70
2022-11-27T17:14:08.200Z,73.30
2022-11-27T17:16:36.850Z,73.30
2022-11-27T17:19:04.563Z,73.60
2022-11-27T17:21:34.228Z,73.50
2022-11-27T17:24:13.204Z,73.40
2022-11-27T17:26:43.804Z,73.40
2022-11-27T17:29:12.503Z,73.70
2022-11-27T17:31:55.922Z,74.10
2022-11-27T17:34:27.382Z,74.00
2022-11-27T17:36:57.612Z,74.00
2022-11-27T17:39:24.536Z,74.20
2022-11-27T17:41:55.929Z,74.20
2022-11-27T17:44:22.833Z,74.70
2022-11-27T17:46:56.184Z,75.50
2022-11-27T17:49:23.604Z,76.10
2022-11-27T17:51:52.865Z,76.30
2022-11-27T17:54:20.709Z,76.70
2022-11-27T17:56:51.468Z,77.00
2022-11-27T17:59:19.627Z,77.20
2022-11-27T18:01:48.519Z,77.40
2022-11-27T18:04:16.041Z,77.50
2022-11-27T18:06:42.902Z,77.70
2022-11-27T18:09:10.277Z,77.50
2022-11-27T18:11:37.575Z,76.90
2022-11-27T18:14:04.536Z,76.30
2022-11-27T18:16:39.917Z,76.10
2022-11-27T18:19:09.597Z,76.00
2022-11-27T18:21:37.634Z,75.50
2022-11-27T18:27:12.045Z,74.70
2022-11-27T18:29:41.864Z,75.00
2022-11-27T18:32:09.969Z,75.20
2022-11-27T18:34:39.793Z,75.10
2022-11-27T18:37:07.335Z,75.00
2022-11-27T18:39:37.553Z,75.00
2022-11-27T18:42:05.290Z,75.10
2022-11-27T18:44:37.327Z,75.10
2022-11-27T18:47:10.131Z,75.20
2022-11-27T18:49:38.779Z,75.30
2022-11-27T18:52:07.014Z,75.50
2022-11-27T18:54:34.082Z,75.70
2022-11-27T18:57:01.348Z,75.50
2022-11-27T18:59:28.115Z,75.50
2022-11-27T19:01:55.121Z,75.70
2022-11-27T19:04:21.954Z,76.00
2022-11-27T19:06:48.764Z,76.60
2022-11-27T19:09:19.255Z,76.80
2022-11-27T19:11:46.162Z,76.60
2022-11-27T19:14:13.040Z,76.50
2022-11-27T19:16:46.330Z,76.20
2022-11-27T19:19:53.486Z,76.10
2022-11-27T19:22:07.576Z,76.00
2022-11-27T19:24:34.680Z,76.10
2022-11-27T19:27:02.673Z,76.00
2022-11-27T19:29:34.513Z,76.00
2022-11-27T19:32:03.400Z,75.70
2022-11-27T19:34:32.782Z,75.60
2022-11-27T19:36:59.856Z,75.50
2022-11-27T19:39:28.262Z,76.00
2022-11-27T19:41:55.208Z,75.10
2022-11-27T19:44:23.452Z,75.10
2022-11-27T19:46:50.156Z,74.80
2022-11-27T19:49:18.953Z,75.20
2022-11-27T19:51:46.550Z,75.00
2022-11-27T19:54:16.952Z,75.10
2022-11-27T19:56:43.963Z,75.20
2022-11-27T19:59:12.545Z,75.50
2022-11-27T20:01:43.116Z,75.20
2022-11-27T20:04:15.199Z,75.40
2022-11-27T20:06:44.421Z,75.30
2022-11-27T20:09:13.960Z,76.10
2022-11-27T20:11:43.168Z,75.70
2022-11-27T20:14:10.208Z,75.50
2022-11-27T20:16:37.579Z,75.60
2022-11-27T20:19:06.360Z,75.50
2022-11-27T20:21:35.492Z,75.50
2022-11-27T20:24:03.823Z,75.50
2022-11-27T20:26:31.019Z,75.50
2022-11-27T20:28:59.876Z,75.90
2022-11-27T20:31:31.439Z,75.70
2022-11-27T20:34:02.530Z,75.80
2022-11-27T20:36:33.772Z,76.00
2022-11-27T20:39:02.524Z,75.80
2022-11-27T20:41:30.127Z,75.50
2022-11-27T20:44:00.491Z,75.30
2022-11-27T20:46:29.117Z,75.30
2022-11-27T20:48:56.558Z,75.10
2022-11-27T20:51:31.172Z,74.90
2022-11-27T20:54:02.282Z,74.30
2022-11-27T20:56:34.967Z,74.00
2022-11-27T20:59:06.806Z,73.30
2022-11-27T21:01:35.532Z,73.30
2022-11-27T21:04:09.081Z,73.50
2022-11-27T21:06:43.687Z,73.30
2022-11-27T21:09:12.437Z,73.10
2022-11-27T21:11:40.331Z,73.30
2022-11-27T21:14:11.206Z,73.50
2022-11-27T21:16:46.000Z,73.40
2022-11-27T21:19:16.220Z,73.20
2022-11-27T21:21:43.438Z,73.30
2022-11-27T21:24:12.816Z,73.30
2022-11-27T21:26:43.006Z,73.60
2022-11-27T21:29:13.896Z,73.80
2022-11-27T21:31:46.446Z,74.00
2022-11-27T21:34:14.697Z,74.60
2022-11-27T21:36:41.528Z,74.40
2022-11-27T21:39:11.364Z,74.20
2022-11-27T21:41:40.734Z,74.30
2022-11-27T21:44:07.593Z,74.10
2022-11-27T21:46:37.505Z,74.10
2022-11-27T21:49:05.878Z,74.10
2022-11-27T21:51:32.902Z,74.30
2022-11-27T21:54:07.979Z,74.80
2022-11-27T21:56:39.472Z,75.40
2022-11-27T21:59:11.579Z,75.60
2022-11-27T22:01:39.046Z,75.70
2022-11-27T22:04:05.948Z,75.70
2022-11-27T22:06:37.559Z,75.90
2022-11-27T22:09:13.351Z,75.90
2022-11-27T22:11:42.235Z,76.30
2022-11-27T22:14:09.576Z,76.30
2022-11-27T22:16:44.444Z,76.30
2022-11-27T22:19:12.856Z,75.90
2022-11-27T22:21:39.628Z,76.00
2022-11-27T22:24:07.646Z,76.20
2022-11-27T22:26:36.593Z,76.40
2022-11-27T22:29:03.578Z,76.50
2022-11-27T22:31:35.242Z,76.60
2022-11-27T22:34:04.280Z,76.50
2022-11-27T22:36:33.426Z,76.60
2022-11-27T22:39:06.482Z,77.30
2022-11-27T22:41:38.733Z,78.10
2022-11-27T22:44:11.023Z,79.00
2022-11-27T22:46:40.595Z,79.60
2022-11-27T22:49:10.755Z,79.20
2022-11-27T22:51:40.311Z,79.00
2022-11-27T22:54:10.300Z,78.30
2022-11-27T22:56:39.166Z,78.00
2022-11-27T22:59:31.120Z,78.20
2022-11-27T23:01:54.708Z,78.30
2022-11-27T23:04:21.519Z,78.70
2022-11-27T23:06:48.732Z,79.00
2022-11-27T23:09:18.864Z,79.50
2022-11-27T23:11:46.274Z,79.70
2022-11-27T23:14:13.206Z,79.50
2022-11-27T23:16:40.274Z,79.30
2022-11-27T23:19:07.084Z,78.50
2022-11-27T23:21:37.377Z,78.10
2022-11-27T23:24:10.008Z,78.20
2022-11-27T23:26:37.466Z,78.30
2022-11-27T23:29:04.486Z,78.60
2022-11-27T23:31:35.438Z,78.90
2022-11-27T23:34:10.168Z,79.10
2022-11-27T23:36:37.327Z,79.60
2022-11-27T23:39:06.090Z,79.50
2022-11-27T23:41:33.330Z,79.00
2022-11-27T23:44:02.247Z,79.00
2022-11-27T23:46:30.245Z,79.00
2022-11-27T23:49:02.154Z,78.80
2022-11-27T23:51:32.339Z,78.50
2022-11-27T23:53:59.754Z,78.10
2022-11-27T23:56:29.432Z,77.60
2022-11-27T23:58:57.314Z,77.50
